createdAt,value
2018-04-24T00:00:52.803Z,2.05
2018-04-24T00:01:55.288Z,2.30
2018-04-24T00:02:57.744Z,2.05
2018-04-24T00:04:00.212Z,1.95
2018-04-24T00:05:02.695Z,2.20
2018-04-24T00:06:05.925Z,1.92
2018-04-24T00:07:08.388Z,1.80
2018-04-24T00:08:10.853Z,2.00
2018-04-24T00:09:13.320Z,1.90
2018-04-24T00:10:16.044Z,1.83
2018-04-24T00:11:19.275Z,1.90
2018-04-24T00:12:21.740Z,2.00
2018-04-24T00:13:24.204Z,1.80
2018-04-24T00:14:26.676Z,1.70
2018-04-24T00:15:29.160Z,1.50
2018-04-24T00:16:31.624Z,1.60
2018-04-24T00:17:34.083Z,1.27
2018-04-24T00:18:36.551Z,1.83
2018-04-24T00:19:39.016Z,1.70
2018-04-24T00:20:41.496Z,1.42
2018-04-24T00:21:44.728Z,1.67
2018-04-24T00:22:47.237Z,1.62
2018-04-24T00:23:50.471Z,1.42
2018-04-24T00:24:52.932Z,1.33
2018-04-24T00:25:55.417Z,1.60
2018-04-24T00:26:57.887Z,1.65
2018-04-24T00:28:01.326Z,1.70
2018-04-24T00:29:03.808Z,1.65
2018-04-24T00:30:06.298Z,1.33
2018-04-24T00:31:08.791Z,1.50
2018-04-24T00:32:12.027Z,1.40
2018-04-24T00:33:14.487Z,1.87
2018-04-24T00:34:16.987Z,1.42
2018-04-24T00:35:19.447Z,1.80
2018-04-24T00:36:21.936Z,1.75
2018-04-24T00:37:25.165Z,1.60
2018-04-24T00:38:27.631Z,1.35
2018-04-24T00:39:30.096Z,1.70
2018-04-24T00:40:32.558Z,1.42
2018-04-24T00:41:35.052Z,1.67
2018-04-24T00:42:37.544Z,1.10
2018-04-24T00:43:40.779Z,1.35
2018-04-24T00:44:43.235Z,2.33
2018-04-24T00:45:45.742Z,1.60
2018-04-24T00:46:48.203Z,1.60
2018-04-24T00:47:50.689Z,1.30
2018-04-24T00:48:53.911Z,1.25
2018-04-24T00:49:56.376Z,1.83
2018-04-24T00:50:58.847Z,1.80
2018-04-24T00:52:01.332Z,1.48
2018-04-24T00:53:15.771Z,1.75
2018-04-24T00:54:18.236Z,1.62
2018-04-24T00:55:20.705Z,1.30
2018-04-24T00:56:23.172Z,1.48
2018-04-24T00:57:25.663Z,1.37
2018-04-24T00:58:28.119Z,1.80
2018-04-24T00:59:31.354Z,1.70
2018-04-24T01:00:33.815Z,1.90
2018-04-24T01:01:36.285Z,1.50
2018-04-24T01:02:38.764Z,1.67
2018-04-24T01:03:41.245Z,1.60
2018-04-24T01:04:43.703Z,1.73
2018-04-24T01:05:46.172Z,2.05
2018-04-24T01:06:48.705Z,1.70
2018-04-24T01:07:51.127Z,1.95
2018-04-24T01:08:54.360Z,1.83
2018-04-24T01:09:56.824Z,2.15
2018-04-24T01:10:59.315Z,1.83
2018-04-24T01:12:01.776Z,2.03
2018-04-24T01:13:04.281Z,1.80
2018-04-24T01:14:06.748Z,1.87
2018-04-24T01:15:09.982Z,2.00
2018-04-24T01:16:12.445Z,1.92
2018-04-24T01:17:14.912Z,1.87
2018-04-24T01:18:17.400Z,2.12
2018-04-24T01:19:19.864Z,2.05
2018-04-24T01:20:23.099Z,1.90
2018-04-24T01:21:26.397Z,1.90
2018-04-24T01:22:28.863Z,1.48
2018-04-24T01:23:31.348Z,1.83
2018-04-24T01:24:33.812Z,2.00
2018-04-24T01:25:36.308Z,2.22
2018-04-24T01:26:39.539Z,2.30
2018-04-24T01:27:41.999Z,2.10
2018-04-24T01:28:44.496Z,1.98
2018-04-24T01:29:48.467Z,1.92
2018-04-24T01:30:50.931Z,2.10
2018-04-24T01:31:53.395Z,2.03
2018-04-24T01:32:55.858Z,2.15
2018-04-24T01:33:58.346Z,1.90
2018-04-24T01:35:00.812Z,2.05
2018-04-24T01:36:03.271Z,1.83
2018-04-24T01:37:05.744Z,2.08
2018-04-24T01:38:08.203Z,2.12
2018-04-24T01:39:10.692Z,1.85
2018-04-24T01:40:13.924Z,2.15
2018-04-24T01:41:16.388Z,1.65
2018-04-24T01:42:18.852Z,2.05
2018-04-24T01:43:21.318Z,2.15
2018-04-24T01:44:23.833Z,1.90
2018-04-24T01:45:27.066Z,1.87
2018-04-24T01:46:29.536Z,1.90
2018-04-24T01:47:32.004Z,2.10
2018-04-24T01:48:34.467Z,1.90
2018-04-24T01:49:36.952Z,2.37
2018-04-24T01:50:39.419Z,2.30
2018-04-24T01:51:41.879Z,2.00
2018-04-24T01:52:44.348Z,2.20
2018-04-24T01:53:46.816Z,2.40
2018-04-24T01:54:50.091Z,2.30
2018-04-24T01:55:52.556Z,2.33
2018-04-24T01:56:55.029Z,2.28
2018-04-24T01:57:58.256Z,2.28
2018-04-24T01:59:00.724Z,2.28
2018-04-24T02:00:03.210Z,2.30
2018-04-24T02:01:05.695Z,2.47
2018-04-24T02:02:08.156Z,2.10
2018-04-24T02:03:10.620Z,2.30
2018-04-24T02:04:13.083Z,2.22
2018-04-24T02:05:15.564Z,2.28
2018-04-24T02:06:18.807Z,2.50
2018-04-24T02:07:21.267Z,2.60
2018-04-24T02:08:23.727Z,2.50
2018-04-24T02:09:26.191Z,2.35
2018-04-24T02:10:28.675Z,2.60
2018-04-24T02:11:31.135Z,2.87
2018-04-24T02:12:33.604Z,2.40
2018-04-24T02:13:36.072Z,2.40
2018-04-24T02:14:38.534Z,2.25
2018-04-24T02:15:41.024Z,2.67
2018-04-24T02:16:44.254Z,2.58
2018-04-24T02:17:46.716Z,2.40
2018-04-24T02:18:49.180Z,2.45
2018-04-24T02:19:51.642Z,2.87
2018-04-24T02:20:54.132Z,2.80
2018-04-24T02:21:56.597Z,2.42
2018-04-24T02:22:59.062Z,2.70
2018-04-24T02:24:01.526Z,2.42
2018-04-24T02:25:04.037Z,2.50
2018-04-24T02:26:06.496Z,2.92
2018-04-24T02:27:09.727Z,2.90
2018-04-24T02:28:12.196Z,2.92
2018-04-24T02:29:15.255Z,2.75
2018-04-24T02:30:17.723Z,3.00
2018-04-24T02:31:20.209Z,2.70
2018-04-24T02:32:22.674Z,2.78
2018-04-24T02:33:25.135Z,2.42
2018-04-24T02:34:27.632Z,2.90
2018-04-24T02:35:30.860Z,2.47
2018-04-24T02:36:33.350Z,2.65
2018-04-24T02:37:35.834Z,2.47
2018-04-24T02:38:38.296Z,2.53
2018-04-24T02:39:40.760Z,2.62
2018-04-24T02:40:43.228Z,2.60
2018-04-24T02:41:45.996Z,2.75
2018-04-24T02:42:48.471Z,2.65
2018-04-24T02:43:51.700Z,2.90
2018-04-24T02:44:54.171Z,2.62
2018-04-24T02:45:56.636Z,2.75
2018-04-24T02:46:59.119Z,2.78
2018-04-24T02:48:01.588Z,2.72
2018-04-24T02:49:04.050Z,2.60
2018-04-24T02:50:06.517Z,2.78
2018-04-24T02:51:08.992Z,2.70
2018-04-24T02:52:11.475Z,2.62
2018-04-24T02:53:14.710Z,2.80
2018-04-24T02:54:17.168Z,2.70
2018-04-24T02:55:19.628Z,3.50
2018-04-24T02:56:22.095Z,3.80
2018-04-24T02:57:24.596Z,2.97
2018-04-24T02:58:27.064Z,3.20
2018-04-24T02:59:31.040Z,2.80
2018-04-24T03:00:33.500Z,3.12
2018-04-24T03:01:36.002Z,3.05
2018-04-24T03:02:38.487Z,2.60
2018-04-24T03:03:41.743Z,2.60
2018-04-24T03:04:44.202Z,4.18
2018-04-24T03:05:46.671Z,3.42
2018-04-24T03:06:50.643Z,3.45
2018-04-24T03:07:53.132Z,3.60
2018-04-24T03:08:55.591Z,3.58
2018-04-24T03:09:58.056Z,3.55
2018-04-24T03:11:00.520Z,3.33
2018-04-24T03:12:02.988Z,3.47
2018-04-24T03:13:05.479Z,3.03
2018-04-24T03:14:08.699Z,3.17
2018-04-24T03:15:11.179Z,3.00
2018-04-24T03:16:13.647Z,3.10
2018-04-24T03:17:17.099Z,3.42
2018-04-24T03:18:19.592Z,2.95
2018-04-24T03:19:22.056Z,3.80
2018-04-24T03:20:24.515Z,2.60
2018-04-24T03:21:26.983Z,3.03
2018-04-24T03:22:29.456Z,3.75
2018-04-24T03:23:31.944Z,2.87
2018-04-24T03:24:34.419Z,3.03
2018-04-24T03:25:37.655Z,3.10
2018-04-24T03:26:40.175Z,2.78
2018-04-24T03:27:43.408Z,2.90
2018-04-24T03:28:45.975Z,2.80
2018-04-24T03:29:48.439Z,3.47
2018-04-24T03:30:50.920Z,3.60
2018-04-24T03:31:53.384Z,4.12
2018-04-24T03:32:55.851Z,3.40
2018-04-24T03:33:58.344Z,6.12
2018-04-24T03:35:01.584Z,9.13
2018-04-24T03:36:04.052Z,5.50
2018-04-24T03:37:06.512Z,4.03
2018-04-24T03:38:09.021Z,4.45
2018-04-24T03:39:12.275Z,3.72
2018-04-24T03:40:14.740Z,3.90
2018-04-24T03:41:17.203Z,3.40
2018-04-24T03:42:19.704Z,3.55
2018-04-24T03:43:22.951Z,3.30
2018-04-24T03:44:25.463Z,2.92
2018-04-24T03:45:27.940Z,3.12
2018-04-24T03:46:30.408Z,3.20
2018-04-24T03:47:32.874Z,2.75
2018-04-24T03:48:35.375Z,2.87
2018-04-24T03:49:37.863Z,3.17
2018-04-24T03:50:41.092Z,3.22
2018-04-24T03:51:43.828Z,3.00
2018-04-24T03:52:47.056Z,3.00
2018-04-24T03:53:49.520Z,2.80
2018-04-24T03:54:52.012Z,3.03
2018-04-24T03:55:54.531Z,2.67
2018-04-24T03:56:56.992Z,2.90
2018-04-24T03:57:59.464Z,3.10
2018-04-24T03:59:01.932Z,3.55
2018-04-24T04:00:04.417Z,2.83
2018-04-24T04:01:06.926Z,2.58
2018-04-24T04:02:10.151Z,2.90
2018-04-24T04:03:12.620Z,2.33
2018-04-24T04:04:15.084Z,2.53
2018-04-24T04:05:17.573Z,2.20
2018-04-24T04:06:20.060Z,2.53
2018-04-24T04:07:23.305Z,2.60
2018-04-24T04:08:25.776Z,2.70
2018-04-24T04:09:28.240Z,2.62
2018-04-24T04:10:30.731Z,2.50
2018-04-24T04:11:33.952Z,2.60
2018-04-24T04:12:36.416Z,2.47
2018-04-24T04:13:38.884Z,2.60
2018-04-24T04:14:41.372Z,2.55
2018-04-24T04:15:44.160Z,2.62
2018-04-24T04:16:46.624Z,2.55
2018-04-24T04:18:00.875Z,2.35
2018-04-24T04:19:16.135Z,2.33
2018-04-24T04:20:30.534Z,2.60
2018-04-24T04:21:45.042Z,3.12
2018-04-24T04:23:00.017Z,2.40
2018-04-24T04:24:14.343Z,2.15
2018-04-24T04:25:17.579Z,2.20
2018-04-24T04:26:21.671Z,2.58
2018-04-24T04:27:24.210Z,2.28
2018-04-24T04:28:26.678Z,2.30
2018-04-24T04:29:29.138Z,2.10
2018-04-24T04:30:31.607Z,2.15
2018-04-24T04:31:34.067Z,2.53
2018-04-24T04:32:36.560Z,2.65
2018-04-24T04:33:39.015Z,2.60
2018-04-24T04:34:41.486Z,2.40
2018-04-24T04:35:43.981Z,2.10
2018-04-24T04:36:47.947Z,2.00
2018-04-24T04:37:50.564Z,2.33
2018-04-24T04:38:53.807Z,2.12
2018-04-24T04:39:56.267Z,2.10
2018-04-24T04:40:58.752Z,2.33
2018-04-24T04:42:01.220Z,2.08
2018-04-24T04:43:03.704Z,2.30
2018-04-24T04:44:06.175Z,1.90
2018-04-24T04:45:09.408Z,2.00
2018-04-24T04:46:11.868Z,2.03
2018-04-24T04:47:14.372Z,2.10
2018-04-24T04:48:16.862Z,2.40
2018-04-24T04:49:20.090Z,2.72
2018-04-24T04:50:22.552Z,2.50
2018-04-24T04:51:25.037Z,2.20
2018-04-24T04:52:27.528Z,2.10
2018-04-24T04:53:30.787Z,2.67
2018-04-24T04:54:33.255Z,2.58
2018-04-24T04:55:35.719Z,2.35
2018-04-24T04:56:38.758Z,2.05
2018-04-24T04:57:41.240Z,2.42
2018-04-24T04:58:43.816Z,2.50
2018-04-24T04:59:46.288Z,2.70
2018-04-24T05:00:48.748Z,2.55
2018-04-24T05:01:51.219Z,2.80
2018-04-24T05:02:53.684Z,2.75
2018-04-24T05:03:56.258Z,2.90
2018-04-24T05:04:59.496Z,2.83
2018-04-24T05:06:01.977Z,3.30
2018-04-24T05:07:04.444Z,2.55
2018-04-24T05:08:06.908Z,2.50
2018-04-24T05:09:09.396Z,2.45
2018-04-24T05:10:11.905Z,3.08
2018-04-24T05:11:14.368Z,4.62
2018-04-24T05:12:16.832Z,5.25
2018-04-24T05:13:19.295Z,4.15
2018-04-24T05:14:21.804Z,3.00
2018-04-24T05:15:24.315Z,2.60
2018-04-24T05:16:27.539Z,2.22
2018-04-24T05:17:30.009Z,2.62
2018-04-24T05:18:32.491Z,2.70
2018-04-24T05:19:34.975Z,2.20
2018-04-24T05:20:38.211Z,2.17
2018-04-24T05:21:40.672Z,2.05
2018-04-24T05:22:43.148Z,2.37
2018-04-24T05:23:45.647Z,2.30
2018-04-24T05:24:48.916Z,2.00
2018-04-24T05:25:51.380Z,2.20
2018-04-24T05:26:53.843Z,2.45
2018-04-24T05:27:56.318Z,1.98
2018-04-24T05:28:59.560Z,2.40
2018-04-24T05:30:02.090Z,2.03
2018-04-24T05:31:04.561Z,2.22
2018-04-24T05:32:07.791Z,1.90
2018-04-24T05:33:10.260Z,1.80
2018-04-24T05:34:12.729Z,1.75
2018-04-24T05:35:15.242Z,1.70
2018-04-24T05:36:17.698Z,1.42
2018-04-24T05:37:20.172Z,1.80
2018-04-24T05:38:22.639Z,1.90
2018-04-24T05:39:25.110Z,1.85
2018-04-24T05:40:27.605Z,1.65
2018-04-24T05:41:30.063Z,2.00
2018-04-24T05:42:32.561Z,1.85
2018-04-24T05:43:35.799Z,1.80
2018-04-24T05:44:38.260Z,1.80
2018-04-24T05:45:40.748Z,1.80
2018-04-24T05:46:43.216Z,1.83
2018-04-24T05:47:45.773Z,1.48
2018-04-24T05:48:48.246Z,1.80
2018-04-24T05:49:51.548Z,1.87
2018-04-24T05:50:54.032Z,1.70
2018-04-24T05:51:57.269Z,1.83
2018-04-24T05:52:59.762Z,1.65
2018-04-24T05:54:02.212Z,1.50
2018-04-24T05:55:04.684Z,1.90
2018-04-24T05:56:07.992Z,1.52
2018-04-24T05:57:11.223Z,1.60
2018-04-24T05:58:13.691Z,1.60
2018-04-24T05:59:16.168Z,1.20
2018-04-24T06:00:18.636Z,1.60
2018-04-24T06:01:21.119Z,1.70
2018-04-24T06:02:24.351Z,1.67
2018-04-24T06:03:26.816Z,1.45
2018-04-24T06:04:29.276Z,1.75
2018-04-24T06:05:31.743Z,1.70
2018-04-24T06:06:34.239Z,1.50
2018-04-24T06:07:36.707Z,1.85
2018-04-24T06:08:39.214Z,1.60
2018-04-24T06:09:42.416Z,1.58
2018-04-24T06:10:44.884Z,1.75
2018-04-24T06:11:47.375Z,1.33
2018-04-24T06:12:49.915Z,1.73
2018-04-24T06:13:52.375Z,1.70
2018-04-24T06:14:54.883Z,1.62
2018-04-24T06:15:57.349Z,1.62
2018-04-24T06:16:59.827Z,1.87
2018-04-24T06:18:03.124Z,1.73
2018-04-24T06:19:06.492Z,3.00
2018-04-24T06:20:09.720Z,1.70
2018-04-24T06:21:12.180Z,1.70
2018-04-24T06:22:14.667Z,2.12
2018-04-24T06:23:17.128Z,1.75
2018-04-24T06:24:19.616Z,1.60
2018-04-24T06:25:22.080Z,1.55
2018-04-24T06:26:24.555Z,1.80
2018-04-24T06:27:27.812Z,1.65
2018-04-24T06:28:30.425Z,1.77
2018-04-24T06:29:33.680Z,1.62
2018-04-24T06:30:36.143Z,1.40
2018-04-24T06:31:38.612Z,1.90
2018-04-24T06:32:41.868Z,1.42
2018-04-24T06:33:44.332Z,1.80
2018-04-24T06:34:46.800Z,1.80
2018-04-24T06:35:49.260Z,1.90
2018-04-24T06:36:51.728Z,1.70
2018-04-24T06:37:54.216Z,1.75
2018-04-24T06:38:57.453Z,1.80
2018-04-24T06:39:59.925Z,1.87
2018-04-24T06:41:02.390Z,1.90
2018-04-24T06:42:04.863Z,1.55
2018-04-24T06:43:07.352Z,2.00
2018-04-24T06:44:09.827Z,1.80
2018-04-24T06:45:13.057Z,1.90
2018-04-24T06:46:15.520Z,1.83
2018-04-24T06:47:18.124Z,1.40
2018-04-24T06:48:20.619Z,1.80
2018-04-24T06:49:23.865Z,1.60
2018-04-24T06:50:26.341Z,1.50
2018-04-24T06:51:28.825Z,1.70
2018-04-24T06:52:32.052Z,1.95
2018-04-24T06:53:35.105Z,1.80
2018-04-24T06:54:37.604Z,2.10
2018-04-24T06:55:40.086Z,1.90
2018-04-24T06:56:42.551Z,2.12
2018-04-24T06:57:45.028Z,1.87
2018-04-24T06:58:47.567Z,2.00
2018-04-24T06:59:50.029Z,2.00
2018-04-24T07:00:52.599Z,1.90
2018-04-24T07:01:55.091Z,1.62
2018-04-24T07:02:59.064Z,1.65
2018-04-24T07:04:01.551Z,2.08
2018-04-24T07:05:04.012Z,1.52
2018-04-24T07:06:06.473Z,2.00
2018-04-24T07:07:08.935Z,1.80
2018-04-24T07:08:12.904Z,1.80
2018-04-24T07:09:15.458Z,1.70
2018-04-24T07:10:17.926Z,2.12
2018-04-24T07:11:20.390Z,1.80
2018-04-24T07:12:22.855Z,2.45
2018-04-24T07:13:25.328Z,2.17
2018-04-24T07:14:27.820Z,1.90
2018-04-24T07:15:30.283Z,1.80
2018-04-24T07:16:32.772Z,2.40
2018-04-24T07:17:36.012Z,1.87
2018-04-24T07:18:38.476Z,2.10
2018-04-24T07:19:40.976Z,1.90
2018-04-24T07:20:44.980Z,1.87
2018-04-24T07:21:47.451Z,1.92
2018-04-24T07:22:50.698Z,1.60
2018-04-24T07:23:53.184Z,1.80
2018-04-24T07:24:55.703Z,1.90
2018-04-24T07:25:58.205Z,2.12
2018-04-24T07:27:00.675Z,2.00
2018-04-24T07:28:04.647Z,2.00
2018-04-24T07:29:07.156Z,1.80
2018-04-24T07:30:10.423Z,1.85
2018-04-24T07:31:14.516Z,1.60
2018-04-24T07:32:16.975Z,2.00
2018-04-24T07:33:19.436Z,2.20
2018-04-24T07:34:21.899Z,1.77
2018-04-24T07:35:24.383Z,2.00
2018-04-24T07:36:26.852Z,2.10
2018-04-24T07:37:29.319Z,2.10
2018-04-24T07:38:32.552Z,2.22
2018-04-24T07:39:35.028Z,1.85
2018-04-24T07:40:37.508Z,2.10
2018-04-24T07:41:39.972Z,2.12
2018-04-24T07:42:42.470Z,2.30
2018-04-24T07:43:46.524Z,2.15
2018-04-24T07:44:49.035Z,1.83
2018-04-24T07:45:52.292Z,1.92
2018-04-24T07:46:54.820Z,2.00
2018-04-24T07:47:57.235Z,2.10
2018-04-24T07:49:00.472Z,2.00
2018-04-24T07:50:02.932Z,1.92
2018-04-24T07:51:05.467Z,2.00
2018-04-24T07:52:08.696Z,1.87
2018-04-24T07:53:11.170Z,2.00
2018-04-24T07:54:13.688Z,2.00
2018-04-24T07:55:16.916Z,2.00
2018-04-24T07:56:19.407Z,2.15
2018-04-24T07:57:22.649Z,2.20
2018-04-24T07:58:25.115Z,2.10
2018-04-24T07:59:27.603Z,1.80
2018-04-24T08:00:30.080Z,2.40
2018-04-24T08:01:33.347Z,2.20
2018-04-24T08:02:35.832Z,2.60
2018-04-24T08:03:39.064Z,2.15
2018-04-24T08:04:41.552Z,2.03
2018-04-24T08:05:44.020Z,2.28
2018-04-24T08:06:46.528Z,2.20
2018-04-24T08:07:49.887Z,1.98
2018-04-24T08:08:53.070Z,2.30
2018-04-24T08:09:55.535Z,1.80
2018-04-24T08:10:57.996Z,2.70
2018-04-24T08:12:01.252Z,2.08
2018-04-24T08:13:03.712Z,2.60
2018-04-24T08:14:06.180Z,2.12
2018-04-24T08:15:08.644Z,2.10
2018-04-24T08:16:11.108Z,2.30
2018-04-24T08:17:13.601Z,1.60
2018-04-24T08:18:16.067Z,1.90
2018-04-24T08:19:18.528Z,1.83
2018-04-24T08:20:20.996Z,1.90
2018-04-24T08:21:23.460Z,2.10
2018-04-24T08:22:26.004Z,2.42
2018-04-24T08:23:28.480Z,2.05
2018-04-24T08:24:30.964Z,2.00
2018-04-24T08:25:33.427Z,1.60
2018-04-24T08:26:36.787Z,1.92
2018-04-24T08:27:39.271Z,2.03
2018-04-24T08:28:41.737Z,1.90
2018-04-24T08:29:44.980Z,1.90
2018-04-24T08:30:47.459Z,1.77
2018-04-24T08:31:49.931Z,2.05
2018-04-24T08:32:52.446Z,1.77
2018-04-24T08:33:54.914Z,1.62
2018-04-24T08:34:57.374Z,1.70
2018-04-24T08:35:59.850Z,1.62
2018-04-24T08:37:02.356Z,1.33
2018-04-24T08:38:04.843Z,1.80
2018-04-24T08:39:08.159Z,1.90
2018-04-24T08:40:10.649Z,1.70
2018-04-24T08:41:13.104Z,1.90
2018-04-24T08:42:15.575Z,1.70
2018-04-24T08:43:18.089Z,1.80
2018-04-24T08:44:21.336Z,2.40
2018-04-24T08:45:23.805Z,2.10
2018-04-24T08:46:26.268Z,1.77
2018-04-24T08:47:28.738Z,1.65
2018-04-24T08:48:31.250Z,1.65
2018-04-24T08:49:33.731Z,1.85
2018-04-24T08:50:36.196Z,1.85
2018-04-24T08:51:38.659Z,1.87
2018-04-24T08:52:41.132Z,2.00
2018-04-24T08:53:43.676Z,1.62
2018-04-24T08:54:46.196Z,2.10
2018-04-24T08:55:48.668Z,1.90
2018-04-24T08:56:51.925Z,1.85
2018-04-24T08:57:54.416Z,1.98
2018-04-24T08:58:57.671Z,1.80
2018-04-24T09:00:00.132Z,1.80
2018-04-24T09:01:02.608Z,2.15
2018-04-24T09:02:05.156Z,2.00
2018-04-24T09:03:07.577Z,2.10
2018-04-24T09:04:10.840Z,2.30
2018-04-24T09:05:14.038Z,2.00
2018-04-24T09:06:17.268Z,2.17
2018-04-24T09:07:19.763Z,2.65
2018-04-24T09:08:22.668Z,2.75
2018-04-24T09:09:25.916Z,2.15
2018-04-24T09:10:28.412Z,2.20
2018-04-24T09:11:31.660Z,2.30
2018-04-24T09:12:34.144Z,2.17
2018-04-24T09:13:38.172Z,2.20
2018-04-24T09:14:40.660Z,2.50
2018-04-24T09:15:43.128Z,2.45
2018-04-24T09:16:45.595Z,2.60
2018-04-24T09:17:48.107Z,2.12
2018-04-24T09:18:51.332Z,2.33
2018-04-24T09:19:53.837Z,2.40
2018-04-24T09:20:56.301Z,3.10
2018-04-24T09:21:58.780Z,2.22
2018-04-24T09:23:02.033Z,2.60
2018-04-24T09:24:04.496Z,3.37
2018-04-24T09:25:06.985Z,3.20
2018-04-24T09:26:09.511Z,2.80
2018-04-24T09:27:11.995Z,2.67
2018-04-24T09:28:14.484Z,2.87
2018-04-24T09:29:16.952Z,2.35
2018-04-24T09:30:20.204Z,2.42
2018-04-24T09:32:50.519Z,2.70
2018-04-24T09:33:53.010Z,2.80
2018-04-24T09:34:55.547Z,3.00
2018-04-24T09:35:58.040Z,3.70
2018-04-24T09:37:00.509Z,3.58
2018-04-24T09:38:02.980Z,3.10
2018-04-24T09:39:06.383Z,3.62
2018-04-24T09:40:08.836Z,2.60
2018-04-24T09:41:12.090Z,3.30
2018-04-24T09:42:14.561Z,2.70
2018-04-24T09:43:17.035Z,2.75
2018-04-24T09:44:19.496Z,2.72
2018-04-24T09:45:22.093Z,2.70
2018-04-24T09:46:24.528Z,2.97
2018-04-24T09:47:26.992Z,3.20
2018-04-24T09:48:29.466Z,2.90
2018-04-24T09:49:31.938Z,2.90
2018-04-24T09:50:34.434Z,3.28
2018-04-24T09:51:36.923Z,2.92
2018-04-24T09:52:39.395Z,2.83
2018-04-24T09:53:41.860Z,3.30
2018-04-24T09:54:44.353Z,3.25
2018-04-24T09:55:47.612Z,2.80
2018-04-24T09:56:50.115Z,3.20
2018-04-24T09:57:53.344Z,3.15
2018-04-24T09:58:55.808Z,2.92
2018-04-24T09:59:58.419Z,3.00
2018-04-24T10:01:00.887Z,3.10
2018-04-24T10:02:04.139Z,3.17
2018-04-24T10:03:06.625Z,3.33
2018-04-24T10:04:09.892Z,3.05
2018-04-24T10:05:12.366Z,3.15
2018-04-24T10:06:14.829Z,3.25
2018-04-24T10:07:17.374Z,3.30
2018-04-24T10:08:19.883Z,3.00
2018-04-24T10:09:23.125Z,3.03
2018-04-24T10:10:25.697Z,2.95
2018-04-24T10:11:28.203Z,3.03
2018-04-24T10:12:31.472Z,3.25
2018-04-24T10:13:34.790Z,3.40
2018-04-24T10:14:37.177Z,3.00
2018-04-24T10:15:39.703Z,3.42
2018-04-24T10:16:42.983Z,3.30
2018-04-24T10:17:46.252Z,3.17
2018-04-24T10:18:48.714Z,3.10
2018-04-24T10:19:51.182Z,3.45
2018-04-24T10:20:54.443Z,3.58
2018-04-24T10:21:56.900Z,3.90
2018-04-24T10:22:59.992Z,3.50
2018-04-24T10:24:02.456Z,3.30
2018-04-24T10:25:04.920Z,3.00
2018-04-24T10:26:07.392Z,3.30
2018-04-24T10:27:10.623Z,3.20
2018-04-24T10:28:13.283Z,3.47
2018-04-24T10:29:15.779Z,2.97
2018-04-24T10:30:18.248Z,3.40
2018-04-24T10:31:20.704Z,3.33
2018-04-24T10:32:23.168Z,3.60
2018-04-24T10:33:25.655Z,3.00
2018-04-24T10:34:28.120Z,3.25
2018-04-24T10:35:30.588Z,3.35
2018-04-24T10:36:33.060Z,3.22
2018-04-24T10:37:37.033Z,3.55
2018-04-24T10:38:39.528Z,2.95
2018-04-24T10:39:42.756Z,3.12
2018-04-24T10:40:45.223Z,3.08
2018-04-24T10:41:47.688Z,2.90
2018-04-24T10:42:50.165Z,3.10
2018-04-24T10:43:52.694Z,3.03
2018-04-24T10:44:55.143Z,3.03
2018-04-24T10:45:58.380Z,3.15
2018-04-24T10:47:00.853Z,3.00
2018-04-24T10:48:03.337Z,3.35
2018-04-24T10:49:05.812Z,2.95
2018-04-24T10:50:09.039Z,3.35
2018-04-24T10:51:11.555Z,3.12
2018-04-24T10:52:14.818Z,2.75
2018-04-24T10:53:17.296Z,2.83
2018-04-24T10:54:19.821Z,3.20
2018-04-24T10:55:22.339Z,2.58
2018-04-24T10:56:24.820Z,2.75
2018-04-24T10:57:27.328Z,2.70
2018-04-24T10:58:29.791Z,3.05
2018-04-24T10:59:32.283Z,2.70
2018-04-24T11:00:34.833Z,3.08
2018-04-24T11:01:37.268Z,3.10
2018-04-24T11:02:39.752Z,2.72
2018-04-24T11:03:42.211Z,2.87
2018-04-24T11:04:44.692Z,2.85
2018-04-24T11:05:47.160Z,2.75
2018-04-24T11:06:49.627Z,3.20
2018-04-24T11:07:52.937Z,2.80
2018-04-24T11:08:56.196Z,2.53
2018-04-24T11:09:59.468Z,2.87
2018-04-24T11:11:01.992Z,2.70
2018-04-24T11:12:04.454Z,2.62
2018-04-24T11:13:06.919Z,3.00
2018-04-24T11:14:09.390Z,2.72
2018-04-24T11:15:11.876Z,2.97
2018-04-24T11:16:14.345Z,2.50
2018-04-24T11:17:16.824Z,2.37
2018-04-24T11:18:19.283Z,2.62
2018-04-24T11:19:22.445Z,2.60
2018-04-24T11:20:24.928Z,2.53
2018-04-24T11:21:27.422Z,2.53
2018-04-24T11:22:29.868Z,2.40
2018-04-24T11:23:32.344Z,2.92
2018-04-24T11:24:34.812Z,2.70
2018-04-24T11:25:37.305Z,2.92
2018-04-24T11:26:39.797Z,2.97
2018-04-24T11:27:42.272Z,3.17
2018-04-24T11:28:44.739Z,10.30
2018-04-24T11:29:47.208Z,2.70
2018-04-24T11:30:49.688Z,2.80
2018-04-24T11:31:52.924Z,2.70
2018-04-24T11:32:55.384Z,2.37
2018-04-24T11:33:57.941Z,2.90
2018-04-24T11:35:00.405Z,2.47
2018-04-24T11:36:02.974Z,2.80
2018-04-24T11:37:06.168Z,2.90
2018-04-24T11:38:08.643Z,3.50
2018-04-24T11:39:11.808Z,2.80
2018-04-24T11:40:14.297Z,2.70
2018-04-24T11:41:16.875Z,2.90
2018-04-24T11:42:19.344Z,2.70
2018-04-24T11:43:21.820Z,2.53
2018-04-24T11:44:24.304Z,2.53
2018-04-24T11:45:27.536Z,2.70
2018-04-24T11:46:30.232Z,2.50
2018-04-24T11:47:34.313Z,2.58
2018-04-24T11:48:36.887Z,2.80
2018-04-24T11:49:39.331Z,2.70
2018-04-24T11:50:42.732Z,2.67
2018-04-24T11:51:45.220Z,2.83
2018-04-24T11:52:47.694Z,2.87
2018-04-24T11:53:50.935Z,2.70
2018-04-24T11:54:53.405Z,2.87
2018-04-24T11:55:55.876Z,2.92
2018-04-24T11:56:58.403Z,2.70
2018-04-24T11:58:00.877Z,2.75
2018-04-24T11:59:03.335Z,2.80
2018-04-24T12:00:05.827Z,2.75
2018-04-24T12:01:08.295Z,2.60
2018-04-24T12:02:10.783Z,2.60
2018-04-24T12:03:13.252Z,2.42
2018-04-24T12:04:16.485Z,3.10
2018-04-24T12:05:18.952Z,2.92
2018-04-24T12:06:21.469Z,2.62
2018-04-24T12:07:24.721Z,2.70
2018-04-24T12:08:27.197Z,2.55
2018-04-24T12:09:29.700Z,2.67
2018-04-24T12:10:32.184Z,2.60
2018-04-24T12:11:34.709Z,2.50
2018-04-24T12:12:38.708Z,2.67
2018-04-24T12:13:41.939Z,3.03
2018-04-24T12:14:44.412Z,3.08
2018-04-24T12:15:46.920Z,3.85
2018-04-24T12:16:49.362Z,3.50
2018-04-24T12:17:51.988Z,3.40
2018-04-24T12:18:54.461Z,3.83
2018-04-24T12:19:56.931Z,4.07
2018-04-24T12:20:59.500Z,3.40
2018-04-24T12:22:01.964Z,4.18
2018-04-24T12:23:04.472Z,3.95
2018-04-24T12:24:06.934Z,4.50
2018-04-24T12:25:09.396Z,3.67
2018-04-24T12:26:11.878Z,3.95
2018-04-24T12:27:15.112Z,3.42
2018-04-24T12:28:17.665Z,3.53
2018-04-24T12:29:20.132Z,3.72
2018-04-24T12:30:22.608Z,13.40
2018-04-24T12:31:25.089Z,4.40
2018-04-24T12:32:27.595Z,4.40
2018-04-24T12:33:30.867Z,4.35
2018-04-24T12:34:34.096Z,4.22
2018-04-24T12:35:36.566Z,4.15
2018-04-24T12:36:39.032Z,4.53
2018-04-24T12:37:41.488Z,4.10
2018-04-24T12:38:44.000Z,3.85
2018-04-24T12:39:47.237Z,4.35
2018-04-24T12:40:49.707Z,4.50
2018-04-24T12:41:52.167Z,3.90
2018-04-24T12:42:54.623Z,4.60
2018-04-24T12:43:57.199Z,4.10
2018-04-24T12:44:59.659Z,3.87
2018-04-24T12:46:02.127Z,3.85
2018-04-24T12:47:04.591Z,3.85
2018-04-24T12:48:07.052Z,4.90
2018-04-24T12:49:09.536Z,4.25
2018-04-24T12:50:12.003Z,4.43
2018-04-24T12:51:14.484Z,3.85
2018-04-24T12:52:16.958Z,3.55
2018-04-24T12:53:20.191Z,3.72
2018-04-24T12:54:22.684Z,3.90
2018-04-24T12:55:25.155Z,3.70
2018-04-24T12:56:28.440Z,3.70
2018-04-24T12:57:31.043Z,4.05
2018-04-24T12:58:34.287Z,4.30
2018-04-24T12:59:36.788Z,4.15
2018-04-24T13:00:40.020Z,4.80
2018-04-24T13:01:42.495Z,6.05
2018-04-24T13:02:45.000Z,3.92
2018-04-24T13:03:48.350Z,4.68
2018-04-24T13:04:50.840Z,5.20
2018-04-24T13:05:54.075Z,4.50
2018-04-24T13:06:56.540Z,4.72
2018-04-24T13:07:59.017Z,4.93
2018-04-24T13:09:01.476Z,5.93
2018-04-24T13:10:03.960Z,5.20
2018-04-24T13:11:06.428Z,6.10
2018-04-24T13:12:08.903Z,6.30
2018-04-24T13:13:12.131Z,5.78
2018-04-24T13:14:15.596Z,5.57
2018-04-24T13:15:18.875Z,5.07
2018-04-24T13:16:21.404Z,4.68
2018-04-24T13:17:23.873Z,5.30
2018-04-24T13:18:26.443Z,5.50
2018-04-24T13:19:28.884Z,4.75
2018-04-24T13:20:31.368Z,4.68
2018-04-24T13:21:33.831Z,5.40
2018-04-24T13:22:36.295Z,4.78
2018-04-24T13:23:38.768Z,5.30
2018-04-24T13:24:41.236Z,5.25
2018-04-24T13:25:43.740Z,4.95
2018-04-24T13:26:46.208Z,5.20
2018-04-24T13:27:48.669Z,5.07
2018-04-24T13:28:51.139Z,4.82
2018-04-24T13:29:53.604Z,4.85
2018-04-24T13:30:56.104Z,5.28
2018-04-24T13:31:58.619Z,4.47
2018-04-24T13:33:01.107Z,5.22
2018-04-24T13:34:03.563Z,5.47
2018-04-24T13:35:06.054Z,4.97
2018-04-24T13:36:08.535Z,4.90
2018-04-24T13:37:11.158Z,4.72
2018-04-24T13:38:13.559Z,4.95
2018-04-24T13:39:16.023Z,5.18
2018-04-24T13:40:18.495Z,4.78
2018-04-24T13:41:21.012Z,5.20
2018-04-24T13:42:23.484Z,5.28
2018-04-24T13:43:26.035Z,5.35
2018-04-24T13:44:28.512Z,5.03
2018-04-24T13:45:31.012Z,4.15
2018-04-24T13:46:33.564Z,4.80
2018-04-24T13:47:36.056Z,4.85
2018-04-24T13:48:38.546Z,5.30
2018-04-24T13:49:41.780Z,4.85
2018-04-24T13:50:44.244Z,3.92
2018-04-24T13:51:46.813Z,5.22
2018-04-24T13:52:49.312Z,5.25
2018-04-24T13:53:52.567Z,4.87
2018-04-24T13:54:55.032Z,5.12
2018-04-24T13:55:57.500Z,5.00
2018-04-24T13:57:00.003Z,4.35